createdAt,value
2022-11-13T00:00:42.132Z,20.63
2022-11-13T00:03:29.193Z,18.60
2022-11-13T00:06:14.772Z,17.25
2022-11-13T00:09:00.226Z,16.95
2022-11-13T00:11:26.868Z,16.67
2022-11-13T00:14:11.906Z,16.60
2022-11-13T00:19:22.573Z,18.35
2022-11-13T00:22:08.035Z,17.67
2022-11-13T00:24:53.220Z,16.67
2022-11-13T00:27:38.766Z,17.30
2022-11-13T00:30:24.002Z,17.95
2022-11-13T00:35:16.106Z,17.75
2022-11-13T00:40:26.514Z,16.17
2022-11-13T00:43:11.609Z,17.58
2022-11-13T00:45:56.823Z,17.70
2022-11-13T00:51:07.418Z,22.27
2022-11-13T00:53:52.495Z,20.73
2022-11-13T00:56:37.720Z,18.50
2022-11-13T00:59:22.900Z,20.02
2022-11-13T01:02:08.145Z,20.35
2022-11-13T01:07:00.241Z,19.90
2022-11-13T01:12:14.773Z,20.95
2022-11-13T01:15:00.441Z,19.38
2022-11-13T01:17:45.482Z,20.05
2022-11-13T01:22:37.513Z,19.50
2022-11-13T01:30:13.511Z,17.65
2022-11-13T01:32:58.766Z,18.02
2022-11-13T01:35:44.076Z,17.67
2022-11-13T01:40:54.815Z,17.20
2022-11-13T01:46:09.004Z,16.15
2022-11-13T01:51:36.299Z,16.30
2022-11-13T01:54:23.093Z,14.88
2022-11-13T01:57:08.550Z,22.27
2022-11-13T02:02:03.077Z,16.50
2022-11-13T02:04:48.548Z,15.68
2022-11-13T02:07:34.201Z,16.50
2022-11-13T02:10:19.043Z,15.07
2022-11-13T02:13:04.563Z,16.73
2022-11-13T02:15:33.189Z,16.98
2022-11-13T02:18:18.861Z,14.77
2022-11-13T02:21:15.557Z,14.18
2022-11-13T02:23:49.630Z,15.80
2022-11-13T02:26:16.932Z,14.70
2022-11-13T02:29:01.953Z,14.10
2022-11-13T02:31:47.236Z,15.32
2022-11-13T02:34:32.203Z,16.30
2022-11-13T02:36:58.778Z,15.65
2022-11-13T02:39:43.701Z,17.50
2022-11-13T02:42:10.294Z,23.15
2022-11-13T02:44:55.460Z,23.67
2022-11-13T02:47:22.086Z,20.67
2022-11-13T02:50:07.901Z,20.35
2022-11-13T02:52:34.601Z,36.38
2022-11-13T02:55:19.761Z,22.10
2022-11-13T02:57:46.363Z,18.95
2022-11-13T03:00:31.267Z,19.38
2022-11-13T03:05:23.450Z,22.58
2022-11-13T03:10:34.141Z,24.70
2022-11-13T03:13:19.288Z,24.50
2022-11-13T03:16:11.940Z,28.98
2022-11-13T03:18:57.256Z,25.13
2022-11-13T03:21:42.597Z,27.13
2022-11-13T03:26:53.261Z,28.60
2022-11-13T03:34:29.828Z,27.42
2022-11-13T03:37:14.940Z,32.40
2022-11-13T03:40:00.266Z,35.15
2022-11-13T03:42:26.844Z,29.55
2022-11-13T03:45:11.743Z,30.63
2022-11-13T03:50:03.822Z,32.08
2022-11-13T03:55:14.675Z,30.50
2022-11-13T03:58:00.100Z,32.13
2022-11-13T04:00:45.740Z,28.92
2022-11-13T04:05:38.476Z,24.50
2022-11-13T04:08:23.364Z,23.00
2022-11-13T04:11:09.509Z,23.80
2022-11-13T04:18:45.300Z,23.50
2022-11-13T04:23:56.035Z,22.45
2022-11-13T04:26:41.014Z,22.80
2022-11-13T04:29:26.386Z,21.73
2022-11-13T04:31:52.986Z,21.55
2022-11-13T04:34:37.919Z,22.13
2022-11-13T04:39:29.922Z,23.95
2022-11-13T04:44:59.156Z,24.67
2022-11-13T04:50:10.428Z,24.85
2022-11-13T04:52:55.825Z,27.08
2022-11-13T04:55:40.952Z,27.27
2022-11-13T04:58:07.540Z,22.80
2022-11-13T05:00:52.769Z,23.75
2022-11-13T05:08:10.774Z,23.35
2022-11-13T05:10:56.208Z,23.50
2022-11-13T05:13:41.345Z,24.08
2022-11-13T05:16:09.128Z,23.10
2022-11-13T05:18:54.025Z,22.98
2022-11-13T05:21:20.642Z,21.92
2022-11-13T05:24:05.597Z,22.05
2022-11-13T05:26:32.382Z,21.45
2022-11-13T05:29:17.473Z,21.98
2022-11-13T05:31:44.416Z,22.52
2022-11-13T05:34:29.530Z,21.23
2022-11-13T05:36:56.084Z,20.75
2022-11-13T05:39:41.022Z,20.73
2022-11-13T05:46:58.514Z,21.60
2022-11-13T05:49:25.134Z,20.58
2022-11-13T05:52:10.187Z,19.02
2022-11-13T05:59:28.048Z,21.90
2022-11-13T06:02:13.663Z,23.23
2022-11-13T06:04:58.508Z,22.80
2022-11-13T06:07:25.103Z,22.33
2022-11-13T06:10:10.109Z,22.70
2022-11-13T06:12:36.685Z,22.88
2022-11-13T06:15:21.767Z,21.98
2022-11-13T06:22:39.721Z,22.35
2022-11-13T06:25:25.085Z,22.02
2022-11-13T06:28:10.042Z,21.45
2022-11-13T06:33:20.176Z,22.38
2022-11-13T06:36:06.479Z,21.15
2022-11-13T06:38:51.541Z,20.77
2022-11-13T06:43:45.519Z,23.48
2022-11-13T06:46:31.103Z,22.10
2022-11-13T06:49:16.626Z,20.25
2022-11-13T06:52:01.785Z,20.35
2022-11-13T06:56:53.748Z,20.55
2022-11-13T07:06:56.602Z,20.55
2022-11-13T07:09:41.793Z,21.23
2022-11-13T07:12:08.699Z,20.08
2022-11-13T07:14:54.118Z,19.50
2022-11-13T07:17:20.916Z,19.00
2022-11-13T07:20:06.398Z,19.63
2022-11-13T07:27:24.436Z,21.05
2022-11-13T07:30:10.193Z,21.70
2022-11-13T07:32:55.664Z,20.00
2022-11-13T07:35:22.344Z,20.48
2022-11-13T07:38:09.112Z,21.10
2022-11-13T07:40:36.070Z,21.70
2022-11-13T07:43:21.244Z,21.05
2022-11-13T07:45:48.333Z,21.20
2022-11-13T07:48:33.953Z,21.27
2022-11-13T07:55:52.500Z,23.23
2022-11-13T07:58:38.098Z,23.02
2022-11-13T08:01:23.408Z,23.30
2022-11-13T08:04:09.078Z,20.67
2022-11-13T08:06:54.714Z,20.10
2022-11-13T08:11:47.555Z,21.42
2022-11-13T08:14:32.620Z,22.38
2022-11-13T08:21:51.933Z,22.52
2022-11-13T08:24:37.771Z,22.08
2022-11-13T08:27:23.381Z,20.75
2022-11-13T08:29:50.453Z,18.38
2022-11-13T08:32:35.744Z,20.52
2022-11-13T08:35:02.802Z,20.10
2022-11-13T08:37:48.179Z,20.77
2022-11-13T08:43:00.119Z,20.65
2022-11-13T08:48:13.357Z,20.00
2022-11-13T08:53:24.306Z,20.40
2022-11-13T08:58:35.270Z,20.67
2022-11-13T09:01:23.077Z,22.45
2022-11-13T09:04:08.552Z,21.85
2022-11-13T09:09:00.830Z,21.58
2022-11-13T09:11:45.751Z,21.88
2022-11-13T09:19:06.502Z,22.58
2022-11-13T09:21:53.079Z,22.02
2022-11-13T09:26:46.749Z,21.35
2022-11-13T09:31:58.036Z,23.15
2022-11-13T09:34:45.989Z,22.30
2022-11-13T09:42:13.939Z,22.05
2022-11-13T09:45:02.409Z,22.02
2022-11-13T09:50:18.214Z,25.83
2022-11-13T09:53:06.118Z,23.48
2022-11-13T09:56:10.155Z,23.90
2022-11-13T09:59:12.646Z,23.67
2022-11-13T10:01:57.957Z,24.10
2022-11-13T10:09:39.547Z,21.85
2022-11-13T10:12:07.842Z,23.00
2022-11-13T10:22:33.771Z,21.08
2022-11-13T10:25:22.334Z,19.80
2022-11-13T10:28:43.301Z,21.08
2022-11-13T10:33:26.962Z,18.35
2022-11-13T10:38:50.523Z,17.05
2022-11-13T10:41:18.505Z,18.92
2022-11-13T10:51:40.406Z,16.20
2022-11-13T10:54:28.638Z,16.20
2022-11-13T10:57:30.927Z,15.43
2022-11-13T10:59:57.822Z,13.95
2022-11-13T11:02:48.788Z,15.13
2022-11-13T11:05:21.792Z,15.13
2022-11-13T11:08:09.993Z,16.08
2022-11-13T11:13:23.623Z,15.60
2022-11-13T11:18:44.037Z,15.80
2022-11-13T11:21:32.569Z,16.65
2022-11-13T11:29:19.149Z,15.77
2022-11-13T11:32:19.069Z,15.40
2022-11-13T11:47:50.388Z,14.63
2022-11-13T11:50:55.042Z,13.68
2022-11-13T11:53:36.864Z,14.50
2022-11-13T11:56:26.439Z,13.95
2022-11-13T12:01:46.413Z,13.43
2022-11-13T12:04:38.685Z,12.82
2022-11-13T12:12:16.084Z,9.00
2022-11-13T12:15:01.439Z,8.68
2022-11-13T12:20:00.900Z,6.68
2022-11-13T12:23:09.124Z,6.63
2022-11-13T12:25:35.732Z,6.03
2022-11-13T12:28:22.047Z,5.90
2022-11-13T12:33:40.596Z,5.60
2022-11-13T12:41:17.337Z,5.40
2022-11-13T12:44:21.529Z,5.18
2022-11-13T12:46:49.679Z,5.28
2022-11-13T12:49:36.942Z,4.80
2022-11-13T12:57:14.522Z,5.38
2022-11-13T13:02:32.911Z,5.05
2022-11-13T13:05:32.628Z,4.68
2022-11-13T13:08:29.100Z,4.72
2022-11-13T13:11:29.799Z,5.30
2022-11-13T13:14:05.288Z,4.65
2022-11-13T13:21:40.607Z,4.32
2022-11-13T13:24:33.627Z,4.47
2022-11-13T13:31:54.991Z,4.93
2022-11-13T13:35:03.997Z,4.70
2022-11-13T13:37:30.590Z,4.97
2022-11-13T13:40:15.759Z,4.68
2022-11-13T13:50:29.566Z,4.80
2022-11-13T13:53:34.441Z,4.55
2022-11-13T13:56:20.458Z,4.70
2022-11-13T13:58:47.428Z,4.65
2022-11-13T14:01:34.116Z,4.57
2022-11-13T14:14:17.955Z,4.57
2022-11-13T14:17:04.150Z,4.47
2022-11-13T14:19:30.748Z,4.38
2022-11-13T14:22:16.604Z,4.97
2022-11-13T14:27:28.463Z,4.63
2022-11-13T14:30:22.454Z,5.28
2022-11-13T14:33:14.749Z,4.25
2022-11-13T14:46:00.933Z,4.30
2022-11-13T14:48:52.444Z,5.03
2022-11-13T14:51:37.825Z,4.60
2022-11-13T14:55:07.980Z,4.97
2022-11-13T14:57:23.846Z,4.55
2022-11-13T15:00:13.268Z,4.40
2022-11-13T15:02:58.972Z,4.18
2022-11-13T15:07:52.909Z,4.70
2022-11-13T15:13:10.868Z,4.60
2022-11-13T15:18:22.239Z,5.13
2022-11-13T15:21:10.859Z,4.57
2022-11-13T15:23:59.681Z,4.82
2022-11-13T15:28:52.552Z,5.10
2022-11-13T15:37:16.239Z,4.60
2022-11-13T15:42:29.728Z,4.40
2022-11-13T15:45:18.694Z,5.55
2022-11-13T15:52:38.859Z,4.95
2022-11-13T15:57:54.161Z,4.88
2022-11-13T16:00:42.868Z,4.85
2022-11-13T16:03:28.240Z,6.05
2022-11-13T16:08:40.382Z,6.22
2022-11-13T16:11:25.421Z,5.75
2022-11-13T16:14:10.718Z,5.85
2022-11-13T16:16:56.034Z,5.72
2022-11-13T16:19:23.635Z,6.60
2022-11-13T16:22:19.138Z,7.18
2022-11-13T16:24:46.070Z,6.72
2022-11-13T16:27:34.003Z,6.93
2022-11-13T16:34:51.614Z,13.20
2022-11-13T16:40:02.721Z,8.38
2022-11-13T16:42:48.289Z,7.82
2022-11-13T16:45:33.457Z,20.55
2022-11-13T16:50:28.617Z,18.20
2022-11-13T16:58:05.385Z,12.20
2022-11-13T17:00:32.040Z,10.52
2022-11-13T17:03:17.372Z,9.70
2022-11-13T17:06:02.448Z,11.82
2022-11-13T17:08:29.046Z,10.20
2022-11-13T17:11:15.046Z,12.05
2022-11-13T17:19:27.101Z,16.45
2022-11-13T17:22:13.019Z,11.35
2022-11-13T17:27:06.586Z,13.45
2022-11-13T17:37:09.419Z,23.52
2022-11-13T17:42:21.350Z,21.15
2022-11-13T17:45:07.494Z,22.85
2022-11-13T17:47:34.561Z,19.45
2022-11-13T17:50:20.117Z,18.10
2022-11-13T17:52:46.870Z,27.33
2022-11-13T18:00:27.164Z,20.63
2022-11-13T18:03:14.710Z,20.13
2022-11-13T18:06:13.361Z,14.60
2022-11-13T18:08:44.530Z,14.40
2022-11-13T18:11:30.823Z,19.42
2022-11-13T18:16:26.338Z,21.85
2022-11-13T18:26:47.335Z,13.02
2022-11-13T18:29:32.970Z,13.18
2022-11-13T18:32:00.591Z,12.68
2022-11-13T18:34:45.978Z,14.63
2022-11-13T18:42:03.465Z,21.02
2022-11-13T18:44:48.558Z,19.75
2022-11-13T18:47:33.521Z,15.90
2022-11-13T18:57:16.596Z,19.80
2022-11-13T19:00:02.500Z,24.35
2022-11-13T19:02:29.194Z,26.73
2022-11-13T19:05:14.423Z,23.75
2022-11-13T19:07:41.316Z,23.27
2022-11-13T19:10:27.788Z,18.25
2022-11-13T19:15:19.851Z,15.77
2022-11-13T19:22:57.704Z,13.60
2022-11-13T19:35:26.062Z,22.08
2022-11-13T19:38:11.195Z,24.10
2022-11-13T19:47:55.673Z,14.07
2022-11-13T19:50:40.953Z,14.73
2022-11-13T19:53:26.102Z,14.80
2022-11-13T19:55:56.024Z,15.13
2022-11-13T19:58:44.242Z,14.13
2022-11-13T20:01:11.780Z,15.30
2022-11-13T20:03:58.094Z,18.07
2022-11-13T20:06:25.220Z,17.42
2022-11-13T20:09:10.982Z,16.83
2022-11-13T20:11:56.128Z,18.60
2022-11-13T20:16:48.572Z,18.05
2022-11-13T20:19:34.215Z,17.00
2022-11-13T20:22:19.896Z,18.60
2022-11-13T20:29:58.073Z,15.90
2022-11-13T20:32:44.500Z,13.43
2022-11-13T20:35:30.019Z,13.43
2022-11-13T20:40:23.076Z,13.52
2022-11-13T20:43:08.805Z,13.73
2022-11-13T20:46:01.362Z,13.40
2022-11-13T20:50:56.306Z,13.55
2022-11-13T21:08:31.142Z,13.85
2022-11-13T21:11:22.234Z,13.93
2022-11-13T21:14:09.284Z,14.02
2022-11-13T21:16:36.675Z,13.45
2022-11-13T21:19:22.881Z,12.20
2022-11-13T21:21:49.529Z,13.00
2022-11-13T21:24:34.774Z,13.48
2022-11-13T21:27:01.965Z,13.60
2022-11-13T21:29:47.312Z,13.93
2022-11-13T21:32:32.412Z,12.52
2022-11-13T21:35:22.307Z,12.88
2022-11-13T21:40:15.339Z,12.90
2022-11-13T21:43:00.199Z,12.82
2022-11-13T21:45:45.418Z,12.60
2022-11-13T21:53:02.817Z,14.75
2022-11-13T21:55:49.003Z,13.63
2022-11-13T21:58:38.696Z,12.57
2022-11-13T22:01:05.729Z,11.77
2022-11-13T22:03:51.249Z,12.85
2022-11-13T22:08:45.658Z,16.05
2022-11-13T22:11:31.946Z,19.02
2022-11-13T22:14:17.235Z,19.15
2022-11-13T22:19:11.541Z,19.38
2022-11-13T22:24:42.275Z,21.63
2022-11-13T22:27:10.854Z,21.80
2022-11-13T22:29:56.095Z,20.83
2022-11-13T22:34:48.356Z,19.85
2022-11-13T22:37:33.730Z,18.20
2022-11-13T22:40:19.300Z,16.92
2022-11-13T22:43:04.808Z,19.00
2022-11-13T22:45:50.082Z,18.02
2022-11-13T22:51:05.520Z,14.27
2022-11-13T22:53:54.137Z,12.98
2022-11-13T22:56:40.217Z,11.55
2022-11-13T23:04:16.245Z,11.52
2022-11-13T23:07:01.445Z,11.77
2022-11-13T23:12:12.375Z,14.55
2022-11-13T23:14:57.865Z,11.82
2022-11-13T23:17:42.968Z,12.30
2022-11-13T23:20:09.733Z,12.45
2022-11-13T23:22:54.678Z,12.27
2022-11-13T23:25:21.291Z,11.93
2022-11-13T23:28:06.418Z,13.68
2022-11-13T23:30:33.302Z,12.75
2022-11-13T23:33:18.715Z,12.98
2022-11-13T23:35:45.327Z,13.68
2022-11-13T23:38:31.045Z,13.23
2022-11-13T23:40:58.871Z,13.15
2022-11-13T23:46:30.356Z,12.73
2022-11-13T23:49:15.494Z,13.10
2022-11-13T23:51:42.071Z,13.95
2022-11-13T23:54:26.963Z,13.35
